createdAt,value
2018-12-18T00:00:32.388Z,1012.8
2018-12-18T00:01:34.531Z,1012.8
2018-12-18T00:02:36.654Z,1012.8
2018-12-18T00:03:39.727Z,1012.8
2018-12-18T00:04:41.846Z,1012.8
2018-12-18T00:05:43.943Z,1012.8
2018-12-18T00:06:46.061Z,1012.8
2018-12-18T00:07:48.180Z,1012.9
2018-12-18T00:08:50.286Z,1012.9
2018-12-18T00:09:54.072Z,1012.8
2018-12-18T00:10:58.372Z,1012.9
2018-12-18T00:12:00.476Z,1012.8
2018-12-18T00:13:02.881Z,1012.8
2018-12-18T00:14:04.994Z,1012.8
2018-12-18T00:15:07.099Z,1012.8
2018-12-18T00:16:09.897Z,1012.8
2018-12-18T00:17:12.298Z,1012.9
2018-12-18T00:18:14.392Z,1012.8
2018-12-18T00:19:16.505Z,1012.9
2018-12-18T00:20:18.635Z,1012.9
2018-12-18T00:21:20.735Z,1012.9
2018-12-18T00:22:22.907Z,1012.8
2018-12-18T00:23:25.026Z,1012.8
2018-12-18T00:24:27.432Z,1012.8
2018-12-18T00:25:29.544Z,1012.7
2018-12-18T00:26:31.672Z,1012.7
2018-12-18T00:27:33.764Z,1012.8
2018-12-18T00:28:35.889Z,1012.8
2018-12-18T00:29:38.011Z,1012.8
2018-12-18T00:30:40.161Z,1012.8
2018-12-18T00:31:42.379Z,1012.8
2018-12-18T00:32:44.850Z,1012.8
2018-12-18T00:33:47.083Z,1012.8
2018-12-18T00:34:49.276Z,1012.8
2018-12-18T00:35:51.393Z,1012.8
2018-12-18T00:36:53.504Z,1012.8
2018-12-18T00:37:55.604Z,1012.8
2018-12-18T00:38:57.728Z,1012.8
2018-12-18T00:40:00.210Z,1012.8
2018-12-18T00:41:02.609Z,1012.9
2018-12-18T00:42:04.737Z,1012.8
2018-12-18T00:43:07.133Z,1012.8
2018-12-18T00:44:09.250Z,1012.8
2018-12-18T00:45:11.360Z,1012.8
2018-12-18T00:46:13.488Z,1012.8
2018-12-18T00:47:15.596Z,1012.8
2018-12-18T00:48:17.698Z,1012.8
2018-12-18T00:49:19.860Z,1012.8
2018-12-18T00:50:21.982Z,1012.8
2018-12-18T00:51:24.071Z,1012.9
2018-12-18T00:52:26.478Z,1012.8
2018-12-18T00:53:28.615Z,1012.8
2018-12-18T00:54:30.779Z,1012.8
2018-12-18T00:55:33.190Z,1012.8
2018-12-18T00:56:35.287Z,1012.9
2018-12-18T00:57:37.394Z,1012.9
2018-12-18T00:58:39.497Z,1012.9
2018-12-18T00:59:41.619Z,1013
2018-12-18T01:00:44.391Z,1013
2018-12-18T01:01:46.502Z,1013
2018-12-18T01:02:48.663Z,1013
2018-12-18T01:03:53.228Z,1013
2018-12-18T01:04:55.377Z,1013
2018-12-18T01:05:57.496Z,1013
2018-12-18T01:06:59.615Z,1013
2018-12-18T01:08:01.712Z,1013
2018-12-18T01:09:03.855Z,1013
2018-12-18T01:10:06.271Z,1013
2018-12-18T01:11:08.376Z,1013
2018-12-18T01:12:10.508Z,1013.1
2018-12-18T01:13:12.604Z,1013.1
2018-12-18T01:14:14.789Z,1013.1
2018-12-18T01:15:16.905Z,1013
2018-12-18T01:16:19.024Z,1013.1
2018-12-18T01:17:21.136Z,1013
2018-12-18T01:18:23.251Z,1013
2018-12-18T01:19:25.351Z,1013
2018-12-18T01:20:27.468Z,1013
2018-12-18T01:21:29.588Z,1013
2018-12-18T01:22:31.697Z,1013
2018-12-18T01:23:34.116Z,1013
2018-12-18T01:24:36.217Z,1013
2018-12-18T01:25:38.335Z,1013
2018-12-18T01:26:40.457Z,1013
2018-12-18T01:27:42.554Z,1013
2018-12-18T01:28:44.678Z,1013
2018-12-18T01:29:46.796Z,1013
2018-12-18T01:30:48.907Z,1013
2018-12-18T01:31:51.008Z,1013
2018-12-18T01:32:53.137Z,1013
2018-12-18T01:33:59.644Z,1013
2018-12-18T01:35:01.764Z,1013.1
2018-12-18T01:36:03.906Z,1013
2018-12-18T01:37:06.007Z,1013
2018-12-18T01:38:08.138Z,1013
2018-12-18T01:39:10.250Z,1013
2018-12-18T01:40:12.751Z,1013
2018-12-18T01:41:14.910Z,1013
2018-12-18T01:42:17.426Z,1013
2018-12-18T01:43:19.811Z,1013
2018-12-18T01:44:21.923Z,1013
2018-12-18T01:45:24.047Z,1013
2018-12-18T01:46:26.149Z,1013
2018-12-18T01:47:28.552Z,1013
2018-12-18T01:48:30.680Z,1012.9
2018-12-18T01:49:32.789Z,1013
2018-12-18T01:50:34.888Z,1013
2018-12-18T01:51:37.014Z,1013
2018-12-18T01:52:39.424Z,1013
2018-12-18T01:53:41.545Z,1013
2018-12-18T01:54:43.665Z,1013.1
2018-12-18T01:55:45.783Z,1013.1
2018-12-18T01:56:48.161Z,1013.1
2018-12-18T01:57:50.290Z,1013
2018-12-18T01:58:52.398Z,1013
2018-12-18T01:59:54.509Z,1013
2018-12-18T02:00:56.617Z,1013
2018-12-18T02:01:58.756Z,1013
2018-12-18T02:03:00.868Z,1013
2018-12-18T02:04:06.414Z,1013
2018-12-18T02:05:08.529Z,1013
2018-12-18T02:06:10.651Z,1012.9
2018-12-18T02:07:12.744Z,1012.9
2018-12-18T02:08:14.857Z,1013
2018-12-18T02:09:16.976Z,1013
2018-12-18T02:10:19.072Z,1013
2018-12-18T02:11:21.197Z,1013
2018-12-18T02:12:23.318Z,1013
2018-12-18T02:13:25.430Z,1013
2018-12-18T02:14:27.537Z,1013
2018-12-18T02:15:29.666Z,1013
2018-12-18T02:16:31.777Z,1012.9
2018-12-18T02:17:33.885Z,1012.9
2018-12-18T02:18:36.015Z,1012.9
2018-12-18T02:19:38.142Z,1012.9
2018-12-18T02:20:40.535Z,1012.9
2018-12-18T02:21:42.658Z,1012.9
2018-12-18T02:22:44.831Z,1012.9
2018-12-18T02:23:46.929Z,1012.9
2018-12-18T02:24:49.043Z,1013
2018-12-18T02:25:51.152Z,1013
2018-12-18T02:26:53.269Z,1012.9
2018-12-18T02:27:55.403Z,1012.9
2018-12-18T02:28:57.512Z,1013
2018-12-18T02:29:59.606Z,1013
2018-12-18T02:31:01.749Z,1013
2018-12-18T02:32:03.865Z,1013
2018-12-18T02:33:05.973Z,1013
2018-12-18T02:34:14.180Z,1013.1
2018-12-18T02:35:16.600Z,1013.1
2018-12-18T02:36:19.056Z,1013.1
2018-12-18T02:37:21.482Z,1013.1
2018-12-18T02:38:23.626Z,1013.1
2018-12-18T02:39:25.733Z,1013
2018-12-18T02:40:28.151Z,1013.1
2018-12-18T02:41:30.281Z,1013.1
2018-12-18T02:42:32.664Z,1013.1
2018-12-18T02:43:34.808Z,1013.1
2018-12-18T02:44:36.904Z,1013.1
2018-12-18T02:45:39.026Z,1013.1
2018-12-18T02:46:41.138Z,1013.1
2018-12-18T02:47:43.276Z,1013.1
2018-12-18T02:48:45.391Z,1013.1
2018-12-18T02:49:47.519Z,1013.1
2018-12-18T02:50:50.323Z,1013.2
2018-12-18T02:51:52.482Z,1013.2
2018-12-18T02:52:54.609Z,1013.1
2018-12-18T02:53:57.001Z,1013.1
2018-12-18T02:54:59.110Z,1013.1
2018-12-18T02:56:01.223Z,1013.1
2018-12-18T02:57:03.647Z,1013.1
2018-12-18T02:58:05.761Z,1013.1
2018-12-18T02:59:07.919Z,1013.1
2018-12-18T03:00:10.324Z,1013.2
2018-12-18T03:01:12.433Z,1013.2
2018-12-18T03:02:14.842Z,1013.2
2018-12-18T03:03:16.968Z,1013.2
2018-12-18T03:04:22.103Z,1013.2
2018-12-18T03:05:24.228Z,1013.2
2018-12-18T03:06:26.374Z,1013.2
2018-12-18T03:07:29.170Z,1013.2
2018-12-18T03:08:31.314Z,1013.2
2018-12-18T03:09:33.428Z,1013.2
2018-12-18T03:10:35.563Z,1013.2
2018-12-18T03:11:37.666Z,1013.2
2018-12-18T03:12:39.796Z,1013.3
2018-12-18T03:13:41.919Z,1013.3
2018-12-18T03:14:44.035Z,1013.2
2018-12-18T03:15:46.436Z,1013.2
2018-12-18T03:16:48.544Z,1013.2
2018-12-18T03:17:50.667Z,1013.2
2018-12-18T03:18:53.173Z,1013.2
2018-12-18T03:19:55.285Z,1013.2
2018-12-18T03:20:57.427Z,1013.2
2018-12-18T03:21:59.537Z,1013.2
2018-12-18T03:23:01.976Z,1013.2
2018-12-18T03:24:04.419Z,1013.2
2018-12-18T03:25:07.182Z,1013.2
2018-12-18T03:26:09.383Z,1013.2
2018-12-18T03:27:11.888Z,1013.2
2018-12-18T03:28:14.004Z,1013.2
2018-12-18T03:29:16.119Z,1013.2
2018-12-18T03:30:18.581Z,1013.2
2018-12-18T03:31:21.579Z,1013.2
2018-12-18T03:32:24.166Z,1013.2
2018-12-18T03:33:27.299Z,1013.2
2018-12-18T03:34:29.404Z,1013.2
2018-12-18T03:35:31.522Z,1013.2
2018-12-18T03:36:33.651Z,1013.2
2018-12-18T03:37:35.751Z,1013.2
2018-12-18T03:38:37.894Z,1013.2
2018-12-18T03:39:40.307Z,1013.3
2018-12-18T03:40:42.418Z,1013.3
2018-12-18T03:41:44.550Z,1013.2
2018-12-18T03:42:46.660Z,1013.2
2018-12-18T03:43:48.771Z,1013.2
2018-12-18T03:44:50.868Z,1013.2
2018-12-18T03:45:53.405Z,1013.2
2018-12-18T03:46:55.527Z,1013.2
2018-12-18T03:47:57.934Z,1013.2
2018-12-18T03:49:00.062Z,1013.3
2018-12-18T03:50:02.155Z,1013.3
2018-12-18T03:51:04.667Z,1013.3
2018-12-18T03:52:06.784Z,1013.3
2018-12-18T03:53:08.925Z,1013.2
2018-12-18T03:54:11.032Z,1013.3
2018-12-18T03:55:13.205Z,1013.3
2018-12-18T03:56:15.327Z,1013.3
2018-12-18T03:57:17.454Z,1013.3
2018-12-18T03:58:19.559Z,1013.3
2018-12-18T03:59:21.690Z,1013.3
2018-12-18T04:00:23.806Z,1013.3
2018-12-18T04:01:25.915Z,1013.3
2018-12-18T04:02:28.025Z,1013.3
2018-12-18T04:03:30.150Z,1013.2
2018-12-18T04:04:36.074Z,1013.2
2018-12-18T04:05:38.521Z,1013.2
2018-12-18T04:06:40.640Z,1013.2
2018-12-18T04:07:43.170Z,1013.3
2018-12-18T04:08:45.306Z,1013.2
2018-12-18T04:09:47.713Z,1013.2
2018-12-18T04:10:50.100Z,1013.2
2018-12-18T04:11:52.221Z,1013.2
2018-12-18T04:12:54.943Z,1013.2
2018-12-18T04:13:57.355Z,1013.2
2018-12-18T04:14:59.780Z,1013.2
2018-12-18T04:16:02.247Z,1013.2
2018-12-18T04:17:04.361Z,1013.2
2018-12-18T04:18:06.811Z,1013.2
2018-12-18T04:19:08.945Z,1013.2
2018-12-18T04:20:11.427Z,1013.2
2018-12-18T04:21:13.553Z,1013.2
2018-12-18T04:22:15.707Z,1013.2
2018-12-18T04:23:17.819Z,1013.2
2018-12-18T04:24:20.335Z,1013.2
2018-12-18T04:25:22.452Z,1013.2
2018-12-18T04:26:24.575Z,1013.2
2018-12-18T04:27:27.389Z,1013.2
2018-12-18T04:28:30.020Z,1013.2
2018-12-18T04:29:32.835Z,1013.2
2018-12-18T04:30:35.345Z,1013.2
2018-12-18T04:31:37.481Z,1013.2
2018-12-18T04:32:39.879Z,1013.2
2018-12-18T04:33:42.093Z,1013.2
2018-12-18T04:34:44.501Z,1013.3
2018-12-18T04:35:47.003Z,1013.3
2018-12-18T04:36:49.139Z,1013.2
2018-12-18T04:37:51.252Z,1013.3
2018-12-18T04:38:53.460Z,1013.3
2018-12-18T04:39:55.586Z,1013.3
2018-12-18T04:40:57.701Z,1013.3
2018-12-18T04:41:59.831Z,1013.3
2018-12-18T04:43:01.968Z,1013.3
2018-12-18T04:44:04.374Z,1013.3
2018-12-18T04:45:06.807Z,1013.3
2018-12-18T04:46:09.499Z,1013.4
2018-12-18T04:47:11.614Z,1013.4
2018-12-18T04:48:13.752Z,1013.4
2018-12-18T04:49:15.872Z,1013.4
2018-12-18T04:50:17.985Z,1013.4
2018-12-18T04:51:22.219Z,1013.4
2018-12-18T04:52:25.056Z,1013.4
2018-12-18T04:53:27.163Z,1013.5
2018-12-18T04:54:29.295Z,1013.5
2018-12-18T04:55:31.432Z,1013.5
2018-12-18T04:56:33.817Z,1013.5
2018-12-18T04:57:35.939Z,1013.5
2018-12-18T04:58:38.068Z,1013.5
2018-12-18T04:59:40.199Z,1013.5
2018-12-18T05:00:42.300Z,1013.5
2018-12-18T05:01:44.726Z,1013.5
2018-12-18T05:02:47.147Z,1013.5
2018-12-18T05:03:49.259Z,1013.6
2018-12-18T05:04:51.670Z,1013.6
2018-12-18T05:05:53.782Z,1013.5
2018-12-18T05:06:56.203Z,1013.6
2018-12-18T05:07:58.346Z,1013.5
2018-12-18T05:09:00.463Z,1013.5
2018-12-18T05:10:02.581Z,1013.5
2018-12-18T05:11:05.291Z,1013.5
2018-12-18T05:12:07.695Z,1013.5
2018-12-18T05:13:10.200Z,1013.5
2018-12-18T05:14:12.888Z,1013.5
2018-12-18T05:15:15.000Z,1013.5
2018-12-18T05:16:17.499Z,1013.5
2018-12-18T05:17:19.637Z,1013.5
2018-12-18T05:18:21.751Z,1013.5
2018-12-18T05:19:23.859Z,1013.5
2018-12-18T05:20:25.982Z,1013.4
2018-12-18T05:21:28.488Z,1013.4
2018-12-18T05:22:30.619Z,1013.5
2018-12-18T05:23:33.019Z,1013.5
2018-12-18T05:24:35.148Z,1013.5
2018-12-18T05:25:37.277Z,1013.5
2018-12-18T05:26:39.438Z,1013.5
2018-12-18T05:27:41.573Z,1013.5
2018-12-18T05:28:43.975Z,1013.5
2018-12-18T05:29:46.489Z,1013.5
2018-12-18T05:30:48.605Z,1013.6
2018-12-18T05:31:50.737Z,1013.6
2018-12-18T05:32:52.890Z,1013.6
2018-12-18T05:33:55.335Z,1013.6
2018-12-18T05:34:57.437Z,1013.6
2018-12-18T05:35:59.563Z,1013.6
2018-12-18T05:37:01.963Z,1013.7
2018-12-18T05:38:04.085Z,1013.6
2018-12-18T05:39:06.496Z,1013.6
2018-12-18T05:40:08.900Z,1013.6
2018-12-18T05:41:11.014Z,1013.6
2018-12-18T05:42:13.126Z,1013.6
2018-12-18T05:43:15.251Z,1013.6
2018-12-18T05:44:17.352Z,1013.6
2018-12-18T05:45:19.532Z,1013.7
2018-12-18T05:46:21.927Z,1013.7
2018-12-18T05:47:24.031Z,1013.7
2018-12-18T05:48:26.154Z,1013.7
2018-12-18T05:49:28.541Z,1013.7
2018-12-18T05:50:32.189Z,1013.6
2018-12-18T05:51:34.302Z,1013.7
2018-12-18T05:52:36.412Z,1013.7
2018-12-18T05:53:38.823Z,1013.7
2018-12-18T05:54:40.922Z,1013.7
2018-12-18T05:55:43.324Z,1013.7
2018-12-18T05:56:45.445Z,1013.7
2018-12-18T05:57:47.848Z,1013.7
2018-12-18T05:58:50.231Z,1013.7
2018-12-18T05:59:52.362Z,1013.7
2018-12-18T06:00:54.473Z,1013.7
2018-12-18T06:01:56.588Z,1013.7
2018-12-18T06:02:58.711Z,1013.7
2018-12-18T06:04:00.820Z,1013.7
2018-12-18T06:05:03.674Z,1013.7
2018-12-18T06:06:06.076Z,1013.7
2018-12-18T06:07:08.215Z,1013.7
2018-12-18T06:08:10.382Z,1013.7
2018-12-18T06:09:12.559Z,1013.7
2018-12-18T06:10:14.687Z,1013.7
2018-12-18T06:11:16.791Z,1013.7
2018-12-18T06:12:19.199Z,1013.7
2018-12-18T06:13:21.590Z,1013.8
2018-12-18T06:14:23.703Z,1013.8
2018-12-18T06:15:25.828Z,1013.8
2018-12-18T06:16:27.951Z,1013.9
2018-12-18T06:17:30.065Z,1013.8
2018-12-18T06:18:32.578Z,1013.8
2018-12-18T06:19:34.689Z,1013.8
2018-12-18T06:20:37.183Z,1013.8
2018-12-18T06:21:39.291Z,1013.8
2018-12-18T06:22:41.422Z,1013.8
2018-12-18T06:23:43.535Z,1013.7
2018-12-18T06:24:45.663Z,1013.7
2018-12-18T06:25:47.780Z,1013.8
2018-12-18T06:26:49.889Z,1013.7
2018-12-18T06:27:52.021Z,1013.8
2018-12-18T06:28:54.129Z,1013.8
2018-12-18T06:29:56.248Z,1013.7
2018-12-18T06:30:58.658Z,1013.8
2018-12-18T06:32:01.460Z,1013.7
2018-12-18T06:33:03.951Z,1013.8
2018-12-18T06:34:06.084Z,1013.8
2018-12-18T06:35:10.812Z,1013.8
2018-12-18T06:36:12.916Z,1013.8
2018-12-18T06:37:15.349Z,1013.9
2018-12-18T06:38:17.495Z,1013.8
2018-12-18T06:39:19.632Z,1013.9
2018-12-18T06:40:21.733Z,1013.9
2018-12-18T06:41:23.852Z,1013.9
2018-12-18T06:42:25.968Z,1013.9
2018-12-18T06:43:28.465Z,1013.9
2018-12-18T06:44:30.884Z,1014
2018-12-18T06:45:34.038Z,1014
2018-12-18T06:46:36.149Z,1014
2018-12-18T06:47:38.272Z,1014
2018-12-18T06:48:40.429Z,1014
2018-12-18T06:49:42.531Z,1014
2018-12-18T06:50:44.651Z,1014
2018-12-18T06:51:46.752Z,1014
2018-12-18T06:52:48.860Z,1014
2018-12-18T06:53:50.993Z,1014
2018-12-18T06:54:53.117Z,1014
2018-12-18T06:55:55.215Z,1014
2018-12-18T06:56:57.355Z,1014
2018-12-18T06:57:59.465Z,1014
2018-12-18T06:59:01.579Z,1014
2018-12-18T07:00:03.713Z,1014
2018-12-18T07:01:05.813Z,1014
2018-12-18T07:02:07.940Z,1014
2018-12-18T07:03:10.056Z,1014
2018-12-18T07:04:12.178Z,1014
2018-12-18T07:05:17.237Z,1014
2018-12-18T07:06:19.382Z,1014
2018-12-18T07:07:21.499Z,1014
2018-12-18T07:08:23.636Z,1014
2018-12-18T07:09:25.730Z,1014
2018-12-18T07:10:27.865Z,1014
2018-12-18T07:11:29.983Z,1014
2018-12-18T07:12:32.495Z,1014
2018-12-18T07:13:34.603Z,1014
2018-12-18T07:14:36.730Z,1014
2018-12-18T07:15:38.843Z,1014
2018-12-18T07:16:40.954Z,1014
2018-12-18T07:17:43.082Z,1014
2018-12-18T07:18:45.200Z,1014
2018-12-18T07:19:47.324Z,1014
2018-12-18T07:20:49.446Z,1014
2018-12-18T07:21:51.560Z,1014.1
2018-12-18T07:22:53.991Z,1014
2018-12-18T07:23:56.134Z,1014
2018-12-18T07:24:58.234Z,1014.1
2018-12-18T07:26:00.353Z,1014.1
2018-12-18T07:27:02.754Z,1014.1
2018-12-18T07:28:04.881Z,1014.2
2018-12-18T07:29:07.568Z,1014.2
2018-12-18T07:30:09.753Z,1014.2
2018-12-18T07:31:12.162Z,1014.2
2018-12-18T07:32:14.279Z,1014.2
2018-12-18T07:33:16.409Z,1014.2
2018-12-18T07:34:18.511Z,1014.2
2018-12-18T07:35:23.709Z,1014.2
2018-12-18T07:36:25.836Z,1014.2
2018-12-18T07:37:28.245Z,1014.2
2018-12-18T07:38:30.626Z,1014.2
2018-12-18T07:39:32.744Z,1014.2
2018-12-18T07:40:34.860Z,1014.3
2018-12-18T07:41:36.960Z,1014.2
2018-12-18T07:42:39.096Z,1014.3
2018-12-18T07:43:41.201Z,1014.2
2018-12-18T07:44:43.314Z,1014.3
2018-12-18T07:45:45.426Z,1014.3
2018-12-18T07:46:47.556Z,1014.3
2018-12-18T07:47:49.659Z,1014.3
2018-12-18T07:48:52.054Z,1014.3
2018-12-18T07:49:54.460Z,1014.3
2018-12-18T07:50:56.559Z,1014.3
2018-12-18T07:51:58.691Z,1014.3
2018-12-18T07:53:01.094Z,1014.3
2018-12-18T07:54:03.979Z,1014.4
2018-12-18T07:55:06.098Z,1014.3
2018-12-18T07:56:08.225Z,1014.4
2018-12-18T07:57:10.338Z,1014.4
2018-12-18T07:58:12.464Z,1014.3
2018-12-18T07:59:14.577Z,1014.4
2018-12-18T08:00:17.086Z,1014.3
2018-12-18T08:01:19.203Z,1014.3
2018-12-18T08:02:21.328Z,1014.3
2018-12-18T08:03:23.430Z,1014.3
2018-12-18T08:04:25.554Z,1014.4
2018-12-18T08:05:30.289Z,1014.3
2018-12-18T08:06:32.394Z,1014.3
2018-12-18T08:07:34.825Z,1014.4
2018-12-18T08:08:36.941Z,1014.4
2018-12-18T08:09:39.054Z,1014.4
2018-12-18T08:10:42.596Z,1014.5
2018-12-18T08:11:44.734Z,1014.5
2018-12-18T08:12:47.533Z,1014.5
2018-12-18T08:13:49.664Z,1014.4
2018-12-18T08:14:51.799Z,1014.4
2018-12-18T08:15:53.896Z,1014.4
2018-12-18T08:16:56.025Z,1014.4
2018-12-18T08:17:58.143Z,1014.4
2018-12-18T08:19:00.543Z,1014.4
2018-12-18T08:20:03.029Z,1014.4
2018-12-18T08:21:05.157Z,1014.4
2018-12-18T08:22:07.294Z,1014.5
2018-12-18T08:23:09.413Z,1014.5
2018-12-18T08:24:11.517Z,1014.5
2018-12-18T08:25:13.681Z,1014.5
2018-12-18T08:26:15.792Z,1014.4
2018-12-18T08:27:17.894Z,1014.5
2018-12-18T08:28:20.008Z,1014.5
2018-12-18T08:29:22.125Z,1014.5
2018-12-18T08:30:24.234Z,1014.5
2018-12-18T08:31:26.367Z,1014.5
2018-12-18T08:32:29.055Z,1014.5
2018-12-18T08:33:31.542Z,1014.5
2018-12-18T08:34:33.676Z,1014.4
2018-12-18T08:35:36.905Z,1014.5
2018-12-18T08:36:39.014Z,1014.5
2018-12-18T08:37:41.140Z,1014.5
2018-12-18T08:38:43.269Z,1014.5
2018-12-18T08:39:45.792Z,1014.5
2018-12-18T08:40:47.932Z,1014.5
2018-12-18T08:41:50.043Z,1014.5
2018-12-18T08:42:52.162Z,1014.5
2018-12-18T08:43:54.660Z,1014.5
2018-12-18T08:44:56.792Z,1014.5
2018-12-18T08:45:58.931Z,1014.5
2018-12-18T08:47:01.061Z,1014.5
2018-12-18T08:48:03.196Z,1014.5
2018-12-18T08:49:05.296Z,1014.6
2018-12-18T08:50:07.431Z,1014.5
2018-12-18T08:51:09.839Z,1014.5
2018-12-18T08:52:11.962Z,1014.5
2018-12-18T08:53:14.052Z,1014.5
2018-12-18T08:54:16.478Z,1014.4
2018-12-18T08:55:18.589Z,1014.5
2018-12-18T08:56:20.696Z,1014.5
2018-12-18T08:57:23.396Z,1014.5
2018-12-18T08:58:25.505Z,1014.5
2018-12-18T08:59:27.625Z,1014.5
2018-12-18T09:00:29.741Z,1014.5
2018-12-18T09:01:31.858Z,1014.5
2018-12-18T09:02:33.981Z,1014.5
2018-12-18T09:03:36.482Z,1014.5
2018-12-18T09:04:38.603Z,1014.5
2018-12-18T09:05:43.628Z,1014.5
2018-12-18T09:06:45.747Z,1014.5
2018-12-18T09:07:47.860Z,1014.5
2018-12-18T09:08:49.986Z,1014.6
2018-12-18T09:09:52.084Z,1014.6
2018-12-18T09:10:54.504Z,1014.6
2018-12-18T09:11:56.925Z,1014.6
2018-12-18T09:12:59.311Z,1014.6
2018-12-18T09:14:01.508Z,1014.6
2018-12-18T09:15:03.647Z,1014.6
2018-12-18T09:16:06.152Z,1014.7
2018-12-18T09:17:08.253Z,1014.6
2018-12-18T09:18:10.388Z,1014.6
2018-12-18T09:19:12.496Z,1014.7
2018-12-18T09:20:14.609Z,1014.6
2018-12-18T09:21:17.020Z,1014.6
2018-12-18T09:22:19.121Z,1014.6
2018-12-18T09:23:21.254Z,1014.6
2018-12-18T09:24:24.043Z,1014.6
2018-12-18T09:25:26.162Z,1014.7
2018-12-18T09:26:28.264Z,1014.7
2018-12-18T09:27:30.392Z,1014.7
2018-12-18T09:28:32.515Z,1014.7
2018-12-18T09:29:34.632Z,1014.7
2018-12-18T09:30:42.987Z,1014.6
2018-12-18T09:31:45.122Z,1014.7
2018-12-18T09:32:47.245Z,1014.6
2018-12-18T09:33:49.367Z,1014.7
2018-12-18T09:34:51.485Z,1014.7
2018-12-18T09:35:53.607Z,1014.7
2018-12-18T09:36:55.731Z,1014.7
2018-12-18T09:37:58.257Z,1014.6
2018-12-18T09:39:00.767Z,1014.7
2018-12-18T09:40:03.151Z,1014.6
2018-12-18T09:41:05.267Z,1014.7
2018-12-18T09:42:07.386Z,1014.7
2018-12-18T09:43:09.768Z,1014.6
2018-12-18T09:44:11.890Z,1014.7
2018-12-18T09:45:14.302Z,1014.6
2018-12-18T09:46:16.425Z,1014.6
2018-12-18T09:47:18.559Z,1014.6
2018-12-18T09:48:20.672Z,1014.7
2018-12-18T09:49:23.097Z,1014.6
2018-12-18T09:50:25.204Z,1014.6
2018-12-18T09:51:27.333Z,1014.6
2018-12-18T09:52:29.443Z,1014.6
2018-12-18T09:53:31.558Z,1014.6
2018-12-18T09:54:33.699Z,1014.6
2018-12-18T09:55:35.793Z,1014.5
2018-12-18T09:56:37.926Z,1014.5
2018-12-18T09:57:40.038Z,1014.5
2018-12-18T09:58:42.164Z,1014.5
2018-12-18T09:59:44.265Z,1014.5
2018-12-18T10:00:46.391Z,1014.5
2018-12-18T10:01:48.504Z,1014.5
2018-12-18T10:02:51.196Z,1014.5
2018-12-18T10:03:53.654Z,1014.4
2018-12-18T10:04:55.763Z,1014.5
2018-12-18T10:05:58.166Z,1014.4
2018-12-18T10:07:00.316Z,1014.4
2018-12-18T10:08:02.436Z,1014.4
2018-12-18T10:09:10.040Z,1014.4
2018-12-18T10:10:12.460Z,1014.4
2018-12-18T10:11:14.567Z,1014.4
2018-12-18T10:12:17.091Z,1014.4
2018-12-18T10:13:19.231Z,1014.4
2018-12-18T10:14:21.348Z,1014.4
2018-12-18T10:15:23.471Z,1014.4
2018-12-18T10:16:26.001Z,1014.4
2018-12-18T10:17:28.112Z,1014.4
2018-12-18T10:18:30.234Z,1014.3
2018-12-18T10:19:32.359Z,1014.3
2018-12-18T10:20:34.457Z,1014.3
2018-12-18T10:21:36.577Z,1014.3
2018-12-18T10:22:38.694Z,1014.3
2018-12-18T10:23:41.210Z,1014.4
2018-12-18T10:24:43.315Z,1014.3
2018-12-18T10:25:45.452Z,1014.3
2018-12-18T10:26:48.248Z,1014.3
2018-12-18T10:27:50.356Z,1014.4
2018-12-18T10:28:52.492Z,1014.3
2018-12-18T10:29:54.600Z,1014.4
2018-12-18T10:30:56.724Z,1014.4
2018-12-18T10:31:58.839Z,1014.3
2018-12-18T10:33:00.966Z,1014.3
2018-12-18T10:34:03.071Z,1014.3
2018-12-18T10:35:05.192Z,1014.3
2018-12-18T10:36:07.321Z,1014.4
2018-12-18T10:37:10.016Z,1014.3
2018-12-18T10:38:12.152Z,1014.3
2018-12-18T10:39:14.554Z,1014.3
2018-12-18T10:40:16.960Z,1014.4
2018-12-18T10:41:19.080Z,1014.3
2018-12-18T10:42:21.217Z,1014.4
2018-12-18T10:43:23.333Z,1014.4
2018-12-18T10:44:25.467Z,1014.4
2018-12-18T10:45:27.596Z,1014.3
2018-12-18T10:46:29.703Z,1014.4
2018-12-18T10:47:31.825Z,1014.3
2018-12-18T10:48:33.963Z,1014.3
2018-12-18T10:49:36.063Z,1014.3
2018-12-18T10:50:38.480Z,1014.3
2018-12-18T10:51:40.611Z,1014.3
2018-12-18T10:52:42.741Z,1014.3
2018-12-18T10:53:44.842Z,1014.3
2018-12-18T10:54:46.966Z,1014.3
2018-12-18T10:55:49.099Z,1014.2
2018-12-18T10:56:51.246Z,1014.3
2018-12-18T10:57:53.348Z,1014.2
2018-12-18T10:58:55.480Z,1014.2
2018-12-18T10:59:57.595Z,1014.2
2018-12-18T11:00:59.703Z,1014.2
2018-12-18T11:02:02.224Z,1014.2
2018-12-18T11:03:04.340Z,1014.2
2018-12-18T11:04:06.457Z,1014.2
2018-12-18T11:05:08.574Z,1014.2
2018-12-18T11:06:10.716Z,1014.2
2018-12-18T11:07:12.826Z,1014.2
2018-12-18T11:08:14.979Z,1014.2
2018-12-18T11:09:17.100Z,1014.1
2018-12-18T11:10:19.480Z,1014.1
2018-12-18T11:11:21.598Z,1014.1
2018-12-18T11:12:24.025Z,1014.1
2018-12-18T11:13:26.436Z,1014.1
2018-12-18T11:14:28.952Z,1014.1
2018-12-18T11:15:31.076Z,1014.1
2018-12-18T11:16:37.727Z,1014.1
2018-12-18T11:17:39.871Z,1014.1
2018-12-18T11:18:41.994Z,1014.1
2018-12-18T11:19:44.106Z,1014.1
2018-12-18T11:20:46.528Z,1014.1
2018-12-18T11:21:48.658Z,1014
2018-12-18T11:22:50.766Z,1014.1
2018-12-18T11:23:52.893Z,1014.1
2018-12-18T11:24:55.012Z,1014.1
2018-12-18T11:25:57.129Z,1014.1
2018-12-18T11:26:59.261Z,1014
2018-12-18T11:28:01.748Z,1014
2018-12-18T11:29:04.181Z,1014
2018-12-18T11:30:06.298Z,1014
2018-12-18T11:31:08.733Z,1014
2018-12-18T11:32:10.861Z,1013.9
2018-12-18T11:33:12.984Z,1013.9
2018-12-18T11:34:15.093Z,1013.9
2018-12-18T11:35:17.226Z,1013.9
2018-12-18T11:36:19.612Z,1013.9
2018-12-18T11:37:21.726Z,1013.9
2018-12-18T11:38:23.843Z,1013.9
2018-12-18T11:39:25.975Z,1013.9
2018-12-18T11:40:28.087Z,1013.9
2018-12-18T11:41:30.204Z,1013.8
2018-12-18T11:42:32.329Z,1013.8
2018-12-18T11:43:34.818Z,1013.8
2018-12-18T11:44:36.945Z,1013.8
2018-12-18T11:45:39.063Z,1013.8
2018-12-18T11:46:41.176Z,1013.8
2018-12-18T11:47:43.993Z,1013.8
2018-12-18T11:48:46.130Z,1013.8
2018-12-18T11:49:48.243Z,1013.7
2018-12-18T11:50:50.370Z,1013.7
2018-12-18T11:51:52.769Z,1013.7
2018-12-18T11:52:54.871Z,1013.7
2018-12-18T11:53:56.993Z,1013.8
2018-12-18T11:54:59.131Z,1013.7
2018-12-18T11:56:01.235Z,1013.7
2018-12-18T11:57:03.365Z,1013.7
2018-12-18T11:58:05.491Z,1013.7
2018-12-18T11:59:07.606Z,1013.7
2018-12-18T12:00:10.315Z,1013.7
2018-12-18T12:01:12.430Z,1013.7
2018-12-18T12:02:14.596Z,1013.7
2018-12-18T12:03:16.713Z,1013.7
2018-12-18T12:04:18.820Z,1013.7
2018-12-18T12:05:20.893Z,1013.7
2018-12-18T12:06:23.487Z,1013.8
2018-12-18T12:07:25.605Z,1013.8
2018-12-18T12:08:27.689Z,1013.8
2018-12-18T12:09:29.759Z,1013.8
2018-12-18T12:10:32.244Z,1013.8
2018-12-18T12:11:34.344Z,1013.8
2018-12-18T12:12:36.452Z,1013.8
2018-12-18T12:13:38.528Z,1013.8
2018-12-18T12:14:40.612Z,1013.8
2018-12-18T12:15:42.702Z,1013.8
2018-12-18T12:16:44.762Z,1013.8
2018-12-18T12:17:46.856Z,1013.8
2018-12-18T12:18:49.216Z,1013.8
2018-12-18T12:19:51.571Z,1013.8
2018-12-18T12:20:53.648Z,1013.8
2018-12-18T12:21:55.841Z,1013.8
2018-12-18T12:22:57.947Z,1013.8
2018-12-18T12:24:00.093Z,1013.8
2018-12-18T12:25:02.190Z,1013.8
2018-12-18T12:26:04.267Z,1013.8
2018-12-18T12:27:06.345Z,1013.8
2018-12-18T12:28:08.443Z,1013.8
2018-12-18T12:29:10.541Z,1013.8
2018-12-18T12:30:12.622Z,1013.8
2018-12-18T12:31:14.710Z,1013.8
2018-12-18T12:32:16.787Z,1013.8
2018-12-18T12:33:18.885Z,1013.7
2018-12-18T12:34:21.270Z,1013.7
2018-12-18T12:35:23.354Z,1013.7
2018-12-18T12:36:30.081Z,1013.7
2018-12-18T12:37:32.463Z,1013.7
2018-12-18T12:38:35.134Z,1013.7
2018-12-18T12:39:37.217Z,1013.7
2018-12-18T12:40:39.316Z,1013.7
2018-12-18T12:41:41.676Z,1013.7
2018-12-18T12:42:43.773Z,1013.6
2018-12-18T12:43:45.848Z,1013.6
2018-12-18T12:44:47.926Z,1013.6
2018-12-18T12:45:49.993Z,1013.6
2018-12-18T12:46:52.373Z,1013.6
2018-12-18T12:47:54.458Z,1013.6
2018-12-18T12:48:56.550Z,1013.5
2018-12-18T12:49:58.651Z,1013.6
2018-12-18T12:51:00.734Z,1013.5
2018-12-18T12:52:02.828Z,1013.5
2018-12-18T12:53:05.222Z,1013.5
2018-12-18T12:54:07.305Z,1013.6
2018-12-18T12:55:09.387Z,1013.6
2018-12-18T12:56:11.485Z,1013.5
2018-12-18T12:57:13.554Z,1013.6
2018-12-18T12:58:15.644Z,1013.6
2018-12-18T12:59:17.741Z,1013.6
2018-12-18T13:00:19.817Z,1013.5
2018-12-18T13:01:21.894Z,1013.5
2018-12-18T13:02:24.074Z,1013.5
2018-12-18T13:03:26.176Z,1013.5
2018-12-18T13:04:28.255Z,1013.6